sensor_id;sensor_type;location;lat;lon;timestamp;pressure;altitude;pressure_sealevel;temperature;humidity
70841;BME280;58465;51.534;9.934;2022-07-01T00:01:26;99529.38;;;20.53;64.18
70841;BME280;58465;51.534;9.934;2022-07-01T00:03:51;99533.59;;;20.57;63.71
70841;BME280;58465;51.534;9.934;2022-07-01T00:06:20;99530.66;;;20.60;63.76
70841;BME280;58465;51.534;9.934;2022-07-01T00:08:46;99538.59;;;20.38;64.49
70841;BME280;58465;51.534;9.934;2022-07-01T00:11:12;99537.69;;;20.12;65.07
70841;BME280;58465;51.534;9.934;2022-07-01T00:13:37;99538.31;;;20.03;65.38
70841;BME280;58465;51.534;9.934;2022-07-01T00:16:03;99540.28;;;20.14;65.14
70841;BME280;58465;51.534;9.934;2022-07-01T00:18:29;99538.41;;;20.01;65.08
70841;BME280;58465;51.534;9.934;2022-07-01T00:20:54;99537.97;;;19.82;65.66
70841;BME280;58465;51.534;9.934;2022-07-01T00:23:19;99544.56;;;19.78;65.90
70841;BME280;58465;51.534;9.934;2022-07-01T00:25:45;99543.47;;;19.81;65.58
70841;BME280;58465;51.534;9.934;2022-07-01T00:28:11;99550.72;;;19.68;65.96
70841;BME280;58465;51.534;9.934;2022-07-01T00:30:37;99560.34;;;19.59;66.09
70841;BME280;58465;51.534;9.934;2022-07-01T00:33:02;99558.13;;;19.51;65.98
70841;BME280;58465;51.534;9.934;2022-07-01T00:35:27;99559.22;;;19.49;66.14
70841;BME280;58465;51.534;9.934;2022-07-01T00:37:53;99567.69;;;19.57;66.03
70841;BME280;58465;51.534;9.934;2022-07-01T00:40:18;99569.09;;;19.62;65.66
70841;BME280;58465;51.534;9.934;2022-07-01T00:42:43;99582.66;;;19.62;65.35
70841;BME280;58465;51.534;9.934;2022-07-01T00:45:09;99587.00;;;19.65;65.09
70841;BME280;58465;51.534;9.934;2022-07-01T00:47:36;99585.38;;;19.62;65.31
70841;BME280;58465;51.534;9.934;2022-07-01T00:50:05;99584.00;;;19.70;64.99
70841;BME280;58465;51.534;9.934;2022-07-01T00:52:32;99578.06;;;19.50;65.20
70841;BME280;58465;51.534;9.934;2022-07-01T00:54:59;99566.28;;;19.23;65.65
70841;BME280;58465;51.534;9.934;2022-07-01T00:57:29;99579.41;;;19.02;66.32
70841;BME280;58465;51.534;9.934;2022-07-01T00:59:55;99578.81;;;18.97;66.08
70841;BME280;58465;51.534;9.934;2022-07-01T01:02:20;99575.34;;;18.95;66.43
70841;BME280;58465;51.534;9.934;2022-07-01T01:04:47;99573.88;;;19.04;65.71
70841;BME280;58465;51.534;9.934;2022-07-01T01:07:12;99566.38;;;18.80;66.53
70841;BME280;58465;51.534;9.934;2022-07-01T01:09:38;99564.44;;;18.68;66.88
70841;BME280;58465;51.534;9.934;2022-07-01T01:12:04;99567.34;;;18.65;66.87
70841;BME280;58465;51.534;9.934;2022-07-01T01:14:29;99565.50;;;18.80;66.17
70841;BME280;58465;51.534;9.934;2022-07-01T01:16:55;99574.00;;;18.88;66.34
70841;BME280;58465;51.534;9.934;2022-07-01T01:19:20;99593.13;;;18.99;65.84
70841;BME280;58465;51.534;9.934;2022-07-01T01:21:46;99593.88;;;19.15;65.26
70841;BME280;58465;51.534;9.934;2022-07-01T01:24:12;99593.09;;;19.27;65.00
70841;BME280;58465;51.534;9.934;2022-07-01T01:26:37;99597.63;;;19.13;65.01
70841;BME280;58465;51.534;9.934;2022-07-01T01:29:04;99593.81;;;19.03;65.40
70841;BME280;58465;51.534;9.934;2022-07-01T01:31:31;99616.59;;;19.13;65.20
70841;BME280;58465;51.534;9.934;2022-07-01T01:33:58;99623.66;;;19.30;64.75
70841;BME280;58465;51.534;9.934;2022-07-01T01:36:23;99624.00;;;19.38;64.47
70841;BME280;58465;51.534;9.934;2022-07-01T01:38:49;99643.66;;;19.41;64.13
70841;BME280;58465;51.534;9.934;2022-07-01T01:41:14;99648.84;;;19.44;63.93
70841;BME280;58465;51.534;9.934;2022-07-01T01:43:39;99652.44;;;19.45;63.63
70841;BME280;58465;51.534;9.934;2022-07-01T01:46:05;99660.97;;;19.39;63.13
70841;BME280;58465;51.534;9.934;2022-07-01T01:48:31;99685.25;;;19.26;63.66
70841;BME280;58465;51.534;9.934;2022-07-01T01:50:56;99673.94;;;19.19;63.54
70841;BME280;58465;51.534;9.934;2022-07-01T01:53:21;99678.47;;;19.19;63.48
70841;BME280;58465;51.534;9.934;2022-07-01T01:55:47;99689.41;;;19.17;63.26
70841;BME280;58465;51.534;9.934;2022-07-01T01:58:12;99698.09;;;19.22;62.97
70841;BME280;58465;51.534;9.934;2022-07-01T02:00:37;99705.66;;;19.17;62.83
70841;BME280;58465;51.534;9.934;2022-07-01T02:03:03;99706.63;;;19.16;63.02
70841;BME280;58465;51.534;9.934;2022-07-01T02:05:28;99710.09;;;19.18;63.11
70841;BME280;58465;51.534;9.934;2022-07-01T02:07:54;99707.56;;;19.15;62.99
70841;BME280;58465;51.534;9.934;2022-07-01T02:10:19;99714.63;;;19.04;63.01
70841;BME280;58465;51.534;9.934;2022-07-01T02:12:45;99722.38;;;19.10;62.89
70841;BME280;58465;51.534;9.934;2022-07-01T02:15:12;99727.41;;;19.02;65.02
70841;BME280;58465;51.534;9.934;2022-07-01T02:17:37;99734.00;;;18.22;69.03
70841;BME280;58465;51.534;9.934;2022-07-01T02:20:03;99747.28;;;17.79;70.97
70841;BME280;58465;51.534;9.934;2022-07-01T02:22:29;99759.44;;;17.55;72.72
70841;BME280;58465;51.534;9.934;2022-07-01T02:24:54;99763.84;;;17.40;75.18
70841;BME280;58465;51.534;9.934;2022-07-01T02:27:19;99768.38;;;17.40;75.52
70841;BME280;58465;51.534;9.934;2022-07-01T02:29:45;99770.09;;;17.25;75.55
70841;BME280;58465;51.534;9.934;2022-07-01T02:32:10;99758.09;;;16.98;76.50
70841;BME280;58465;51.534;9.934;2022-07-01T02:34:35;99772.63;;;16.78;77.02
70841;BME280;58465;51.534;9.934;2022-07-01T02:37:01;99771.69;;;16.79;77.92
70841;BME280;58465;51.534;9.934;2022-07-01T02:39:26;99767.38;;;16.92;78.62
70841;BME280;58465;51.534;9.934;2022-07-01T02:41:51;99756.19;;;16.83;77.38
70841;BME280;58465;51.534;9.934;2022-07-01T02:44:35;99757.25;;;16.80;78.04
70841;BME280;58465;51.534;9.934;2022-07-01T02:47:01;99776.13;;;16.80;77.87
70841;BME280;58465;51.534;9.934;2022-07-01T02:49:26;99771.50;;;16.82;77.64
70841;BME280;58465;51.534;9.934;2022-07-01T02:51:51;99765.06;;;16.85;77.79
70841;BME280;58465;51.534;9.934;2022-07-01T02:54:17;99766.75;;;16.87;77.89
70841;BME280;58465;51.534;9.934;2022-07-01T02:56:42;99774.84;;;16.87;77.92
70841;BME280;58465;51.534;9.934;2022-07-01T02:59:07;99774.06;;;16.68;76.37
70841;BME280;58465;51.534;9.934;2022-07-01T03:01:33;99779.97;;;16.57;77.39
70841;BME280;58465;51.534;9.934;2022-07-01T03:03:58;99773.41;;;16.63;77.96
70841;BME280;58465;51.534;9.934;2022-07-01T03:06:23;99773.91;;;16.71;77.77
70841;BME280;58465;51.534;9.934;2022-07-01T03:08:48;99775.06;;;16.65;77.33
70841;BME280;58465;51.534;9.934;2022-07-01T03:11:14;99782.94;;;16.70;77.78
70841;BME280;58465;51.534;9.934;2022-07-01T03:13:39;99791.47;;;16.61;77.53
70841;BME280;58465;51.534;9.934;2022-07-01T03:16:04;99803.34;;;16.57;77.36
70841;BME280;58465;51.534;9.934;2022-07-01T03:18:30;99809.94;;;16.51;77.05
70841;BME280;58465;51.534;9.934;2022-07-01T03:20:55;99812.03;;;16.45;76.59
70841;BME280;58465;51.534;9.934;2022-07-01T03:23:20;99812.84;;;16.47;76.39
70841;BME280;58465;51.534;9.934;2022-07-01T03:25:46;99808.34;;;16.47;75.63
70841;BME280;58465;51.534;9.934;2022-07-01T03:28:11;99810.56;;;16.56;76.00
70841;BME280;58465;51.534;9.934;2022-07-01T03:30:37;99805.75;;;16.63;75.65
70841;BME280;58465;51.534;9.934;2022-07-01T03:33:02;99813.69;;;16.66;74.61
70841;BME280;58465;51.534;9.934;2022-07-01T03:35:27;99816.09;;;16.72;74.20
70841;BME280;58465;51.534;9.934;2022-07-01T03:38:03;99807.22;;;16.87;73.61
70841;BME280;58465;51.534;9.934;2022-07-01T03:40:29;99801.75;;;16.89;72.74
70841;BME280;58465;51.534;9.934;2022-07-01T03:42:54;99800.72;;;16.91;71.77
70841;BME280;58465;51.534;9.934;2022-07-01T03:45:20;99800.53;;;16.77;71.44
70841;BME280;58465;51.534;9.934;2022-07-01T03:47:46;99811.81;;;16.85;71.94
70841;BME280;58465;51.534;9.934;2022-07-01T03:50:12;99824.66;;;16.97;71.64
70841;BME280;58465;51.534;9.934;2022-07-01T03:52:38;99830.31;;;17.10;70.76
70841;BME280;58465;51.534;9.934;2022-07-01T03:55:03;99823.78;;;17.14;70.67
70841;BME280;58465;51.534;9.934;2022-07-01T03:57:29;99831.38;;;17.23;70.47
70841;BME280;58465;51.534;9.934;2022-07-01T03:59:54;99838.38;;;17.27;69.90
70841;BME280;58465;51.534;9.934;2022-07-01T04:02:19;99844.16;;;17.37;69.49
70841;BME280;58465;51.534;9.934;2022-07-01T04:04:44;99843.13;;;17.39;69.33
70841;BME280;58465;51.534;9.934;2022-07-01T04:07:10;99842.41;;;17.36;68.39
70841;BME280;58465;51.534;9.934;2022-07-01T04:09:36;99829.88;;;17.18;68.06
70841;BME280;58465;51.534;9.934;2022-07-01T04:12:03;99834.34;;;17.19;67.70
70841;BME280;58465;51.534;9.934;2022-07-01T04:14:29;99828.59;;;17.25;67.21
70841;BME280;58465;51.534;9.934;2022-07-01T04:16:55;99821.78;;;17.18;67.46
70841;BME280;58465;51.534;9.934;2022-07-01T04:19:20;99820.91;;;17.17;66.83
70841;BME280;58465;51.534;9.934;2022-07-01T04:21:46;99821.34;;;17.10;67.44
70841;BME280;58465;51.534;9.934;2022-07-01T04:24:30;99828.44;;;17.28;67.81
70841;BME280;58465;51.534;9.934;2022-07-01T04:26:58;99830.50;;;17.23;66.80
70841;BME280;58465;51.534;9.934;2022-07-01T04:29:24;99831.63;;;17.19;66.73
70841;BME280;58465;51.534;9.934;2022-07-01T04:31:49;99825.81;;;17.26;66.81
70841;BME280;58465;51.534;9.934;2022-07-01T04:34:15;99827.66;;;17.26;67.04
70841;BME280;58465;51.534;9.934;2022-07-01T04:36:40;99833.34;;;17.37;66.51
70841;BME280;58465;51.534;9.934;2022-07-01T04:39:06;99841.19;;;17.41;65.91
70841;BME280;58465;51.534;9.934;2022-07-01T04:41:32;99855.09;;;17.68;65.47
70841;BME280;58465;51.534;9.934;2022-07-01T04:44:17;99868.75;;;17.48;65.43
70841;BME280;58465;51.534;9.934;2022-07-01T04:46:42;99867.66;;;17.35;66.02
70841;BME280;58465;51.534;9.934;2022-07-01T04:49:07;99865.94;;;17.50;65.60
70841;BME280;58465;51.534;9.934;2022-07-01T04:51:33;99864.41;;;17.61;65.22
70841;BME280;58465;51.534;9.934;2022-07-01T04:54:00;99865.78;;;17.53;64.96
70841;BME280;58465;51.534;9.934;2022-07-01T04:56:26;99871.13;;;17.54;65.24
70841;BME280;58465;51.534;9.934;2022-07-01T04:58:53;99863.81;;;17.56;64.95
70841;BME280;58465;51.534;9.934;2022-07-01T05:01:19;99862.19;;;17.69;64.49
70841;BME280;58465;51.534;9.934;2022-07-01T05:03:44;99857.44;;;17.74;64.25
70841;BME280;58465;51.534;9.934;2022-07-01T05:06:09;99850.31;;;17.56;64.98
70841;BME280;58465;51.534;9.934;2022-07-01T05:08:34;99843.38;;;17.51;65.04
70841;BME280;58465;51.534;9.934;2022-07-01T05:11:00;99846.38;;;17.62;64.73
70841;BME280;58465;51.534;9.934;2022-07-01T05:13:25;99844.81;;;17.75;64.34
70841;BME280;58465;51.534;9.934;2022-07-01T05:15:50;99848.81;;;17.84;64.04
70841;BME280;58465;51.534;9.934;2022-07-01T05:18:16;99849.34;;;17.90;63.77
70841;BME280;58465;51.534;9.934;2022-07-01T05:21:00;99844.81;;;17.91;63.50
70841;BME280;58465;51.534;9.934;2022-07-01T05:23:44;99846.56;;;17.92;63.63
70841;BME280;58465;51.534;9.934;2022-07-01T05:26:09;99848.84;;;17.99;63.31
70841;BME280;58465;51.534;9.934;2022-07-01T05:28:37;99858.97;;;17.96;63.68
70841;BME280;58465;51.534;9.934;2022-07-01T05:31:03;99850.78;;;17.97;63.57
70841;BME280;58465;51.534;9.934;2022-07-01T05:33:28;99859.19;;;17.91;63.47
70841;BME280;58465;51.534;9.934;2022-07-01T05:35:54;99860.78;;;17.95;63.93
70841;BME280;58465;51.534;9.934;2022-07-01T05:38:19;99871.47;;;17.81;63.72
70841;BME280;58465;51.534;9.934;2022-07-01T05:40:44;99878.88;;;17.60;64.73
70841;BME280;58465;51.534;9.934;2022-07-01T05:43:09;99890.16;;;17.51;65.18
70841;BME280;58465;51.534;9.934;2022-07-01T05:45:35;99887.47;;;17.51;66.13
70841;BME280;58465;51.534;9.934;2022-07-01T05:48:00;99893.25;;;17.61;66.01
70841;BME280;58465;51.534;9.934;2022-07-01T05:50:26;99885.22;;;17.59;65.70
70841;BME280;58465;51.534;9.934;2022-07-01T05:52:51;99875.47;;;17.57;66.46
70841;BME280;58465;51.534;9.934;2022-07-01T05:55:16;99881.47;;;17.29;68.05
70841;BME280;58465;51.534;9.934;2022-07-01T05:57:42;99888.75;;;16.75;70.07
70841;BME280;58465;51.534;9.934;2022-07-01T06:00:07;99887.53;;;16.45;72.08
70841;BME280;58465;51.534;9.934;2022-07-01T06:02:35;99884.16;;;16.22;73.50
70841;BME280;58465;51.534;9.934;2022-07-01T06:05:00;99877.44;;;16.12;73.36
70841;BME280;58465;51.534;9.934;2022-07-01T06:07:25;99875.63;;;16.13;73.95
70841;BME280;58465;51.534;9.934;2022-07-01T06:09:50;99880.22;;;16.11;74.53
70841;BME280;58465;51.534;9.934;2022-07-01T06:12:16;99875.41;;;16.17;75.01
70841;BME280;58465;51.534;9.934;2022-07-01T06:14:41;99892.16;;;16.24;74.60
70841;BME280;58465;51.534;9.934;2022-07-01T06:17:07;99904.31;;;16.32;74.77
70841;BME280;58465;51.534;9.934;2022-07-01T06:19:34;99906.72;;;16.39;74.97
70841;BME280;58465;51.534;9.934;2022-07-01T06:21:59;99915.81;;;16.36;74.79
70841;BME280;58465;51.534;9.934;2022-07-01T06:24:25;99921.25;;;16.34;74.90
70841;BME280;58465;51.534;9.934;2022-07-01T06:26:50;99928.47;;;16.34;75.16
70841;BME280;58465;51.534;9.934;2022-07-01T06:29:15;99933.09;;;16.32;74.99
70841;BME280;58465;51.534;9.934;2022-07-01T06:31:41;99921.50;;;16.30;75.23
70841;BME280;58465;51.534;9.934;2022-07-01T06:34:06;99932.22;;;16.31;75.71
70841;BME280;58465;51.534;9.934;2022-07-01T06:36:31;99933.22;;;16.29;75.32
70841;BME280;58465;51.534;9.934;2022-07-01T06:38:56;99918.13;;;16.25;75.68
70841;BME280;58465;51.534;9.934;2022-07-01T06:41:22;99918.69;;;16.14;76.21
70841;BME280;58465;51.534;9.934;2022-07-01T06:43:54;99921.19;;;16.17;76.41
70841;BME280;58465;51.534;9.934;2022-07-01T06:46:20;99924.84;;;16.16;75.81
70841;BME280;58465;51.534;9.934;2022-07-01T06:48:46;99913.28;;;16.14;75.71
70841;BME280;58465;51.534;9.934;2022-07-01T06:51:12;99924.78;;;16.18;76.16
70841;BME280;58465;51.534;9.934;2022-07-01T06:53:37;99940.31;;;16.31;76.14
70841;BME280;58465;51.534;9.934;2022-07-01T06:56:03;99947.34;;;16.34;75.12
70841;BME280;58465;51.534;9.934;2022-07-01T06:58:28;99951.09;;;16.31;75.64
70841;BME280;58465;51.534;9.934;2022-07-01T07:00:54;99967.25;;;16.31;75.83
70841;BME280;58465;51.534;9.934;2022-07-01T07:03:19;99974.97;;;16.39;76.07
70841;BME280;58465;51.534;9.934;2022-07-01T07:05:44;99965.88;;;16.42;75.75
70841;BME280;58465;51.534;9.934;2022-07-01T07:08:09;99974.09;;;16.39;75.56
70841;BME280;58465;51.534;9.934;2022-07-01T07:10:36;99970.97;;;16.29;75.49
70841;BME280;58465;51.534;9.934;2022-07-01T07:13:01;99989.53;;;16.35;75.62
70841;BME280;58465;51.534;9.934;2022-07-01T07:15:26;99987.00;;;16.32;75.41
70841;BME280;58465;51.534;9.934;2022-07-01T07:17:51;99995.97;;;16.32;75.69
70841;BME280;58465;51.534;9.934;2022-07-01T07:20:17;99992.44;;;16.30;75.25
70841;BME280;58465;51.534;9.934;2022-07-01T07:22:42;99989.97;;;16.26;75.21
70841;BME280;58465;51.534;9.934;2022-07-01T07:25:08;99983.19;;;16.36;75.63
70841;BME280;58465;51.534;9.934;2022-07-01T07:27:33;99996.31;;;16.44;74.69
70841;BME280;58465;51.534;9.934;2022-07-01T07:29:59;99988.97;;;16.47;74.89
70841;BME280;58465;51.534;9.934;2022-07-01T07:32:24;99995.03;;;16.52;74.45
70841;BME280;58465;51.534;9.934;2022-07-01T07:34:49;99992.09;;;16.57;74.01
70841;BME280;58465;51.534;9.934;2022-07-01T07:37:14;99993.56;;;16.64;73.79
70841;BME280;58465;51.534;9.934;2022-07-01T07:39:40;99996.06;;;16.68;72.79
70841;BME280;58465;51.534;9.934;2022-07-01T07:42:05;99991.16;;;16.77;73.34
70841;BME280;58465;51.534;9.934;2022-07-01T07:44:31;100004.19;;;16.86;72.32
70841;BME280;58465;51.534;9.934;2022-07-01T07:46:57;99996.59;;;16.94;71.97
70841;BME280;58465;51.534;9.934;2022-07-01T07:49:23;99985.81;;;16.94;71.29
70841;BME280;58465;51.534;9.934;2022-07-01T07:51:48;99991.13;;;16.95;71.55
70841;BME280;58465;51.534;9.934;2022-07-01T07:54:13;100004.97;;;17.06;71.65
70841;BME280;58465;51.534;9.934;2022-07-01T07:56:39;99992.50;;;17.04;70.87
70841;BME280;58465;51.534;9.934;2022-07-01T07:59:04;100003.53;;;16.99;71.22
70841;BME280;58465;51.534;9.934;2022-07-01T08:01:29;100017.50;;;17.08;71.19
70841;BME280;58465;51.534;9.934;2022-07-01T08:03:54;100017.19;;;17.14;70.25
70841;BME280;58465;51.534;9.934;2022-07-01T08:06:20;100011.19;;;17.26;69.82
70841;BME280;58465;51.534;9.934;2022-07-01T08:08:45;100012.47;;;17.36;69.45
70841;BME280;58465;51.534;9.934;2022-07-01T08:11:11;100021.44;;;17.36;68.41
70841;BME280;58465;51.534;9.934;2022-07-01T08:13:37;100029.13;;;17.27;68.62
70841;BME280;58465;51.534;9.934;2022-07-01T08:16:02;100037.66;;;17.36;68.80
70841;BME280;58465;51.534;9.934;2022-07-01T08:18:29;100040.09;;;17.41;68.26
70841;BME280;58465;51.534;9.934;2022-07-01T08:20:54;100043.75;;;17.40;68.13
70841;BME280;58465;51.534;9.934;2022-07-01T08:23:20;100051.72;;;17.43;67.95
70841;BME280;58465;51.534;9.934;2022-07-01T08:25:47;100044.47;;;17.43;67.82
70841;BME280;58465;51.534;9.934;2022-07-01T08:28:12;100050.53;;;17.49;67.96
70841;BME280;58465;51.534;9.934;2022-07-01T08:30:37;100059.06;;;17.58;66.76
70841;BME280;58465;51.534;9.934;2022-07-01T08:33:04;100063.63;;;17.75;66.60
70841;BME280;58465;51.534;9.934;2022-07-01T08:35:29;100062.66;;;17.93;65.91
70841;BME280;58465;51.534;9.934;2022-07-01T08:37:55;100067.50;;;18.04;65.63
70841;BME280;58465;51.534;9.934;2022-07-01T08:40:27;100061.53;;;18.14;65.24
70841;BME280;58465;51.534;9.934;2022-07-01T08:42:58;100068.69;;;18.15;65.25
70841;BME280;58465;51.534;9.934;2022-07-01T08:45:25;100072.94;;;18.20;64.62
70841;BME280;58465;51.534;9.934;2022-07-01T08:47:53;100061.38;;;18.00;64.85
70841;BME280;58465;51.534;9.934;2022-07-01T08:50:23;100063.59;;;17.92;64.18
70841;BME280;58465;51.534;9.934;2022-07-01T08:52:48;100064.47;;;17.93;64.96
70841;BME280;58465;51.534;9.934;2022-07-01T08:55:14;100073.19;;;17.98;64.47
70841;BME280;58465;51.534;9.934;2022-07-01T08:57:39;100063.50;;;18.11;63.92
70841;BME280;58465;51.534;9.934;2022-07-01T09:00:07;100057.56;;;18.04;63.87
70841;BME280;58465;51.534;9.934;2022-07-01T09:02:56;100074.31;;;18.11;63.34
70841;BME280;58465;51.534;9.934;2022-07-01T09:05:23;100065.75;;;18.03;63.11
70841;BME280;58465;51.534;9.934;2022-07-01T09:08:04;100072.03;;;18.03;62.83
70841;BME280;58465;51.534;9.934;2022-07-01T09:10:31;100064.38;;;18.11;62.79
70841;BME280;58465;51.534;9.934;2022-07-01T09:13:07;100084.50;;;18.23;62.42
70841;BME280;58465;51.534;9.934;2022-07-01T09:15:33;100092.59;;;18.23;62.33
70841;BME280;58465;51.534;9.934;2022-07-01T09:18:13;100102.38;;;18.26;62.70
70841;BME280;58465;51.534;9.934;2022-07-01T09:20:44;100101.91;;;18.35;62.28
70841;BME280;58465;51.534;9.934;2022-07-01T09:23:18;100095.69;;;18.33;62.50
70841;BME280;58465;51.534;9.934;2022-07-01T09:25:48;100089.97;;;18.22;61.99
70841;BME280;58465;51.534;9.934;2022-07-01T09:28:24;100088.94;;;18.24;62.07
70841;BME280;58465;51.534;9.934;2022-07-01T09:30:55;100104.09;;;18.27;62.24
70841;BME280;58465;51.534;9.934;2022-07-01T09:33:27;100099.84;;;18.23;62.24
70841;BME280;58465;51.534;9.934;2022-07-01T09:35:54;100109.63;;;18.25;62.22
70841;BME280;58465;51.534;9.934;2022-07-01T09:38:23;100111.53;;;18.23;62.41
70841;BME280;58465;51.534;9.934;2022-07-01T09:40:59;100105.28;;;18.38;61.51
70841;BME280;58465;51.534;9.934;2022-07-01T09:43:30;100113.50;;;18.20;61.73
70841;BME280;58465;51.534;9.934;2022-07-01T09:46:03;100109.78;;;18.22;61.54
70841;BME280;58465;51.534;9.934;2022-07-01T09:50:57;100102.94;;;18.32;61.39
70841;BME280;58465;51.534;9.934;2022-07-01T09:53:22;100091.88;;;18.20;61.13
70841;BME280;58465;51.534;9.934;2022-07-01T09:55:48;100095.03;;;18.28;60.79
70841;BME280;58465;51.534;9.934;2022-07-01T09:58:14;100098.59;;;18.45;60.29
70841;BME280;58465;51.534;9.934;2022-07-01T10:00:40;100090.59;;;18.44;59.68
70841;BME280;58465;51.534;9.934;2022-07-01T10:03:06;100093.78;;;18.68;59.57
70841;BME280;58465;51.534;9.934;2022-07-01T10:05:37;100091.13;;;19.15;58.37
70841;BME280;58465;51.534;9.934;2022-07-01T10:11:38;100107.50;;;19.90;55.40
70841;BME280;58465;51.534;9.934;2022-07-01T10:14:10;100105.22;;;19.98;55.41
70841;BME280;58465;51.534;9.934;2022-07-01T10:16:37;100089.75;;;20.15;54.67
70841;BME280;58465;51.534;9.934;2022-07-01T10:19:26;100090.38;;;20.34;54.32
70841;BME280;58465;51.534;9.934;2022-07-01T10:21:52;100095.06;;;20.46;53.43
70841;BME280;58465;51.534;9.934;2022-07-01T10:24:22;100092.16;;;20.35;54.10
70841;BME280;58465;51.534;9.934;2022-07-01T10:26:48;100099.78;;;19.98;54.95
70841;BME280;58465;51.534;9.934;2022-07-01T10:29:36;100102.16;;;19.27;56.95
70841;BME280;58465;51.534;9.934;2022-07-01T10:32:10;100097.00;;;19.07;58.00
70841;BME280;58465;51.534;9.934;2022-07-01T10:34:40;100096.72;;;18.96;58.08
70841;BME280;58465;51.534;9.934;2022-07-01T10:37:07;100101.81;;;19.02;58.31
70841;BME280;58465;51.534;9.934;2022-07-01T10:40:02;100099.97;;;19.03;57.94
70841;BME280;58465;51.534;9.934;2022-07-01T10:42:33;100098.47;;;19.13;57.61
70841;BME280;58465;51.534;9.934;2022-07-01T10:45:10;100089.59;;;19.11;56.97
70841;BME280;58465;51.534;9.934;2022-07-01T10:47:38;100099.78;;;19.06;57.47
70841;BME280;58465;51.534;9.934;2022-07-01T10:50:08;100097.06;;;19.06;57.89
70841;BME280;58465;51.534;9.934;2022-07-01T10:52:34;100093.56;;;19.04;57.41
70841;BME280;58465;51.534;9.934;2022-07-01T10:55:02;100099.53;;;19.10;57.41
70841;BME280;58465;51.534;9.934;2022-07-01T10:57:31;100105.91;;;19.09;57.90
70841;BME280;58465;51.534;9.934;2022-07-01T11:02:30;100093.84;;;18.99;58.89
70841;BME280;58465;51.534;9.934;2022-07-01T11:04:59;100094.44;;;18.88;58.58
70841;BME280;58465;51.534;9.934;2022-07-01T11:07:27;100092.09;;;18.82;59.39
70841;BME280;58465;51.534;9.934;2022-07-01T11:09:54;100093.22;;;18.78;59.64
70841;BME280;58465;51.534;9.934;2022-07-01T11:12:23;100098.69;;;18.77;59.30
70841;BME280;58465;51.534;9.934;2022-07-01T11:14:49;100097.81;;;18.61;59.71
70841;BME280;58465;51.534;9.934;2022-07-01T11:17:14;100102.88;;;18.49;60.30
70841;BME280;58465;51.534;9.934;2022-07-01T11:19:47;100102.34;;;18.43;60.96
70841;BME280;58465;51.534;9.934;2022-07-01T11:22:17;100116.28;;;18.35;61.10
70841;BME280;58465;51.534;9.934;2022-07-01T11:24:43;100119.44;;;18.43;60.80
70841;BME280;58465;51.534;9.934;2022-07-01T11:27:09;100133.28;;;18.37;61.07
70841;BME280;58465;51.534;9.934;2022-07-01T11:29:34;100142.59;;;18.32;60.88
70841;BME280;58465;51.534;9.934;2022-07-01T11:32:00;100143.78;;;18.09;61.93
70841;BME280;58465;51.534;9.934;2022-07-01T11:34:29;100152.22;;;18.03;62.60
70841;BME280;58465;51.534;9.934;2022-07-01T11:36:55;100159.78;;;17.96;63.49
70841;BME280;58465;51.534;9.934;2022-07-01T11:39:40;100155.34;;;17.95;63.93
70841;BME280;58465;51.534;9.934;2022-07-01T11:42:08;100160.25;;;18.04;64.17
70841;BME280;58465;51.534;9.934;2022-07-01T11:47:02;100134.22;;;18.53;63.59
70841;BME280;58465;51.534;9.934;2022-07-01T11:49:28;100139.50;;;18.89;62.19
70841;BME280;58465;51.534;9.934;2022-07-01T11:51:58;100136.13;;;19.17;61.26
70841;BME280;58465;51.534;9.934;2022-07-01T11:54:24;100140.34;;;19.54;60.36
70841;BME280;58465;51.534;9.934;2022-07-01T11:56:49;100135.47;;;19.91;58.72
70841;BME280;58465;51.534;9.934;2022-07-01T11:59:15;100133.88;;;20.02;59.35
70841;BME280;58465;51.534;9.934;2022-07-01T12:01:41;100133.22;;;19.83;58.07
70841;BME280;58465;51.534;9.934;2022-07-01T12:04:08;100142.47;;;19.95;59.01
70841;BME280;58465;51.534;9.934;2022-07-01T12:06:34;100145.97;;;19.97;58.06
70841;BME280;58465;51.534;9.934;2022-07-01T12:09:02;100138.66;;;20.13;57.33
70841;BME280;58465;51.534;9.934;2022-07-01T12:11:28;100134.31;;;20.25;56.06
70841;BME280;58465;51.534;9.934;2022-07-01T12:13:55;100134.25;;;20.26;55.70
70841;BME280;58465;51.534;9.934;2022-07-01T12:16:21;100121.41;;;20.14;55.60
70841;BME280;58465;51.534;9.934;2022-07-01T12:18:58;100121.69;;;20.10;56.37
70841;BME280;58465;51.534;9.934;2022-07-01T12:21:26;100134.25;;;20.26;55.53
70841;BME280;58465;51.534;9.934;2022-07-01T12:26:32;100146.31;;;20.51;54.65
70841;BME280;58465;51.534;9.934;2022-07-01T12:28:58;100142.72;;;20.36;54.68
70841;BME280;58465;51.534;9.934;2022-07-01T12:31:23;100138.84;;;20.40;55.16
70841;BME280;58465;51.534;9.934;2022-07-01T12:33:50;100147.22;;;20.94;53.96
70841;BME280;58465;51.534;9.934;2022-07-01T12:36:19;100143.59;;;21.50;52.21
70841;BME280;58465;51.534;9.934;2022-07-01T12:38:44;100136.75;;;22.11;50.98
70841;BME280;58465;51.534;9.934;2022-07-01T12:41:33;100139.44;;;22.63;50.10
70841;BME280;58465;51.534;9.934;2022-07-01T12:43:59;100150.13;;;22.66;49.97
70841;BME280;58465;51.534;9.934;2022-07-01T12:46:30;100149.56;;;22.61;49.97
70841;BME280;58465;51.534;9.934;2022-07-01T12:48:56;100155.00;;;22.36;50.38
70841;BME280;58465;51.534;9.934;2022-07-01T12:51:28;100158.31;;;21.87;50.45
70841;BME280;58465;51.534;9.934;2022-07-01T12:53:54;100159.13;;;21.75;50.92
70841;BME280;58465;51.534;9.934;2022-07-01T12:56:24;100155.06;;;21.95;50.37
70841;BME280;58465;51.534;9.934;2022-07-01T12:58:50;100154.09;;;22.23;49.80
70841;BME280;58465;51.534;9.934;2022-07-01T13:01:17;100165.94;;;21.95;49.60
70841;BME280;58465;51.534;9.934;2022-07-01T13:03:43;100160.97;;;21.47;50.18
70841;BME280;58465;51.534;9.934;2022-07-01T13:06:08;100156.16;;;21.65;50.48
70841;BME280;58465;51.534;9.934;2022-07-01T13:08:33;100145.25;;;22.06;49.58